Time;durP1;ratioP1;P1;durP2;ratioP2;P2;SDS_P1;SDS_P2;PMS_P1;PMS_P2;Temp;Humidity;BMP_temperature;BMP_pressure;BME280_temperature;BME280_humidity;BME280_pressure;Samples;Min_cycle;Max_cycle;Signal;HPM_P1;HPM_P2
2023/04/11 00:00:29;;;;;;;1.23;1.17;;;12.00;99.90;;;;;;4956893;28;20223;-50
2023/04/11 00:02:58;;;;;;;2.10;1.10;;;11.90;99.90;;;;;;4965180;28;20200;-50
2023/04/11 00:05:26;;;;;;;1.00;1.00;;;11.90;99.90;;;;;;4972716;28;20317;-50
2023/04/11 00:07:53;;;;;;;0.80;0.80;;;11.80;99.90;;;;;;4971446;28;20680;-49
2023/04/11 00:10:20;;;;;;;0.80;0.80;;;11.80;99.90;;;;;;4965038;28;20216;-50
2023/04/11 00:12:48;;;;;;;1.50;1.40;;;11.90;99.90;;;;;;4957934;28;20263;-49
2023/04/11 00:15:16;;;;;;;0.90;0.90;;;11.80;99.90;;;;;;4972295;28;20224;-49
2023/04/11 00:17:46;;;;;;;1.10;0.97;;;11.80;99.90;;;;;;4972902;28;20226;-50
2023/04/11 00:20:14;;;;;;;2.10;0.93;;;11.80;99.90;;;;;;4973244;28;20217;-49
2023/04/11 00:22:43;;;;;;;0.90;0.80;;;11.90;99.90;;;;;;4964281;28;20236;-50
2023/04/11 00:25:10;;;;;;;0.80;0.80;;;11.90;99.90;;;;;;4973217;28;20293;-51
2023/04/11 00:27:40;;;;;;;1.50;0.70;;;12.00;99.90;;;;;;4971336;28;20281;-51
2023/04/11 00:30:10;;;;;;;0.70;0.70;;;12.00;99.90;;;;;;4973189;28;20672;-48
2023/04/11 00:32:40;;;;;;;0.73;0.73;;;12.10;99.90;;;;;;4972107;28;20281;-48
2023/04/11 00:35:08;;;;;;;0.73;0.73;;;12.10;99.90;;;;;;4969882;28;20216;-48
2023/04/11 00:37:35;;;;;;;0.70;0.70;;;12.10;99.90;;;;;;4970060;28;20307;-48
2023/04/11 00:40:05;;;;;;;1.80;0.90;;;12.10;99.90;;;;;;4970037;28;20204;-48
2023/04/11 00:42:33;;;;;;;0.83;0.83;;;12.30;99.90;;;;;;4972218;28;20211;-48
2023/04/11 00:45:00;;;;;;;1.37;0.70;;;12.30;99.90;;;;;;4972794;28;20280;-48
2023/04/11 00:47:28;;;;;;;1.13;0.90;;;12.30;99.90;;;;;;4972663;28;20264;-48
2023/04/11 00:49:55;;;;;;;0.60;0.60;;;12.30;99.90;;;;;;4971955;28;20237;-48
2023/04/11 00:52:22;;;;;;;0.80;0.80;;;12.30;99.90;;;;;;4970624;28;20247;-48
2023/04/11 00:54:49;;;;;;;0.67;0.67;;;12.30;99.90;;;;;;4972263;28;20246;-48
2023/04/11 00:57:16;;;;;;;0.60;0.60;;;12.30;99.90;;;;;;4970567;28;20205;-48
2023/04/11 00:59:47;;;;;;;0.73;0.73;;;12.40;99.90;;;;;;4964094;28;20192;-48
2023/04/11 01:02:14;;;;;;;1.03;1.00;;;12.40;99.90;;;;;;4971601;28;20306;-48
2023/04/11 01:04:44;;;;;;;0.90;0.90;;;12.40;99.90;;;;;;4968310;28;20317;-48
2023/04/11 01:07:12;;;;;;;2.07;0.93;;;12.40;99.90;;;;;;4972143;28;20270;-48
2023/04/11 01:09:39;;;;;;;0.60;0.60;;;12.50;99.90;;;;;;4971482;28;20214;-49
2023/04/11 01:12:07;;;;;;;0.60;0.60;;;12.40;99.90;;;;;;4970827;28;20227;-48
2023/04/11 01:14:34;;;;;;;0.90;0.90;;;12.40;99.90;;;;;;4972216;28;20380;-48
2023/04/11 01:17:01;;;;;;;1.47;0.90;;;12.40;99.90;;;;;;4971405;28;20218;-48
2023/04/11 01:19:30;;;;;;;0.70;0.70;;;12.50;99.90;;;;;;4972291;28;20277;-48
2023/04/11 01:22:00;;;;;;;2.00;1.10;;;12.40;99.90;;;;;;4971826;28;20198;-48
2023/04/11 01:24:29;;;;;;;0.50;0.50;;;12.30;99.90;;;;;;4972195;28;20223;-49
2023/04/11 01:26:56;;;;;;;0.80;0.80;;;12.30;99.90;;;;;;4972243;28;20208;-48
2023/04/11 01:29:24;;;;;;;0.93;0.50;;;12.20;99.90;;;;;;4971057;28;20273;-49
2023/04/11 01:31:51;;;;;;;1.10;0.70;;;12.10;99.90;;;;;;4970806;28;20231;-48
2023/04/11 01:34:20;;;;;;;1.83;1.00;;;12.00;99.90;;;;;;4971049;28;20656;-48
2023/04/11 01:36:48;;;;;;;0.70;0.70;;;12.00;99.90;;;;;;4964389;28;20296;-48
2023/04/11 01:39:15;;;;;;;0.97;0.97;;;11.90;99.90;;;;;;4971873;28;20586;-48
2023/04/11 01:41:45;;;;;;;0.87;0.70;;;11.80;99.90;;;;;;4970314;28;20267;-48
2023/04/11 01:44:13;;;;;;;0.47;0.47;;;11.80;99.90;;;;;;4969759;28;20293;-48
2023/04/11 01:46:40;;;;;;;1.17;0.70;;;11.80;99.90;;;;;;4971889;28;20219;-48
2023/04/11 01:49:07;;;;;;;0.63;0.63;;;11.70;99.90;;;;;;4971059;28;20204;-48
2023/04/11 01:51:35;;;;;;;1.03;0.90;;;11.60;99.90;;;;;;4971740;28;20330;-48
2023/04/11 01:54:02;;;;;;;0.50;0.50;;;11.60;99.90;;;;;;4971893;28;20243;-48
2023/04/11 01:56:29;;;;;;;0.60;0.60;;;11.70;99.90;;;;;;4969744;28;20211;-49
2023/04/11 01:58:58;;;;;;;0.83;0.40;;;11.70;99.90;;;;;;4971316;28;20201;-48
2023/04/11 02:01:25;;;;;;;0.50;0.50;;;11.80;99.90;;;;;;4972753;28;20202;-48
2023/04/11 02:03:52;;;;;;;2.03;0.70;;;11.80;99.90;;;;;;4972225;28;20274;-48
2023/04/11 02:06:19;;;;;;;0.60;0.60;;;11.80;99.90;;;;;;4975419;28;20214;-48
2023/04/11 02:08:46;;;;;;;1.13;1.10;;;11.80;99.90;;;;;;4964644;28;20205;-48
2023/04/11 02:11:13;;;;;;;0.40;0.40;;;11.80;99.90;;;;;;4975236;28;20195;-48
2023/04/11 02:13:40;;;;;;;1.47;0.60;;;11.80;99.90;;;;;;4975387;28;20261;-48
2023/04/11 02:16:13;;;;;;;0.40;0.40;;;11.70;99.90;;;;;;4975298;28;20279;-48
2023/04/11 02:18:42;;;;;;;1.80;0.50;;;11.70;99.90;;;;;;4975159;28;20203;-48
2023/04/11 02:21:09;;;;;;;0.57;0.57;;;11.70;99.90;;;;;;4972016;28;20258;-48
2023/04/11 02:23:39;;;;;;;0.43;0.43;;;11.80;99.90;;;;;;4974584;28;20207;-48
2023/04/11 02:26:07;;;;;;;1.03;0.83;;;11.90;99.90;;;;;;4975637;28;20285;-48
2023/04/11 02:28:35;;;;;;;1.40;0.60;;;11.90;99.90;;;;;;4973145;28;20211;-49
2023/04/11 02:31:02;;;;;;;1.07;0.50;;;11.90;99.90;;;;;;4975172;28;20201;-49
2023/04/11 02:33:31;;;;;;;0.50;0.50;;;11.90;99.90;;;;;;4972426;28;20798;-49
2023/04/11 02:35:58;;;;;;;0.40;0.40;;;11.90;99.90;;;;;;4974612;28;20223;-49
2023/04/11 02:38:25;;;;;;;2.30;0.83;;;11.80;99.90;;;;;;4972803;28;20662;-48
2023/04/11 02:40:52;;;;;;;2.00;0.73;;;11.90;99.90;;;;;;4973712;28;20573;-48
2023/04/11 02:43:19;;;;;;;0.60;0.60;;;12.00;99.90;;;;;;4970636;28;20292;-48
2023/04/11 02:45:46;;;;;;;0.60;0.60;;;12.00;99.90;;;;;;4974464;28;20277;-48
2023/04/11 02:48:13;;;;;;;1.97;0.60;;;12.10;99.90;;;;;;4974492;28;20207;-48
2023/04/11 02:50:42;;;;;;;0.60;0.40;;;12.20;99.90;;;;;;4973734;28;20812;-48
2023/04/11 02:53:09;;;;;;;0.40;0.40;;;12.30;99.90;;;;;;4972166;28;20230;-48
2023/04/11 02:55:36;;;;;;;0.50;0.50;;;12.30;99.90;;;;;;4973373;28;20806;-48
2023/04/11 02:58:03;;;;;;;0.67;0.60;;;12.30;99.90;;;;;;4973379;28;20727;-48
2023/04/11 03:00:30;;;;;;;0.80;0.80;;;12.40;99.90;;;;;;4974457;28;20242;-48
2023/04/11 03:02:57;;;;;;;0.43;0.43;;;12.40;99.90;;;;;;4972549;28;20521;-48
2023/04/11 03:05:24;;;;;;;0.73;0.73;;;12.50;99.90;;;;;;4974038;28;20243;-48
2023/04/11 03:07:53;;;;;;;0.47;0.47;;;12.50;99.90;;;;;;4974119;28;20211;-48
2023/04/11 03:10:20;;;;;;;0.63;0.63;;;12.50;99.40;;;;;;4974527;28;20203;-48
2023/04/11 03:12:47;;;;;;;1.07;1.07;;;12.50;99.90;;;;;;4970967;28;20249;-48
2023/04/11 03:15:16;;;;;;;0.50;0.50;;;12.40;99.90;;;;;;4968039;28;20273;-50
2023/04/11 03:17:43;;;;;;;0.60;0.60;;;12.50;99.90;;;;;;4973760;28;20207;-49
2023/04/11 03:20:12;;;;;;;0.50;0.50;;;12.40;99.90;;;;;;4974073;28;20216;-48
2023/04/11 03:22:42;;;;;;;0.67;0.67;;;12.40;99.90;;;;;;4973943;28;20642;-48
2023/04/11 03:25:11;;;;;;;0.87;0.87;;;12.40;99.80;;;;;;4972325;28;20254;-48
2023/04/11 03:27:37;;;;;;;0.63;0.57;;;12.50;99.10;;;;;;4971128;28;20202;-48
2023/04/11 03:30:05;;;;;;;0.73;0.50;;;12.50;99.60;;;;;;4969841;28;20214;-49
2023/04/11 03:32:32;;;;;;;0.50;0.50;;;12.50;99.10;;;;;;4972106;28;20218;-48
2023/04/11 03:35:01;;;;;;;1.00;0.40;;;12.50;99.70;;;;;;4973859;28;20289;-48
2023/04/11 03:37:28;;;;;;;1.33;0.60;;;12.40;99.90;;;;;;4973626;28;20735;-50
2023/04/11 03:39:55;;;;;;;0.63;0.63;;;12.30;99.90;;;;;;4973442;28;20680;-48
2023/04/11 03:42:23;;;;;;;0.40;0.40;;;12.30;99.90;;;;;;4968580;28;20283;-48
2023/04/11 03:44:50;;;;;;;0.40;0.40;;;12.40;99.90;;;;;;4972636;28;20282;-49
2023/04/11 03:47:17;;;;;;;0.60;0.53;;;12.30;99.90;;;;;;4973504;28;20667;-49
2023/04/11 03:49:44;;;;;;;0.57;0.57;;;12.20;99.90;;;;;;4973294;28;20681;-49
2023/04/11 03:52:13;;;;;;;0.50;0.50;;;12.10;99.90;;;;;;4972339;28;20234;-49
2023/04/11 03:54:40;;;;;;;4.30;0.97;;;12.00;99.90;;;;;;4972145;28;20241;-49
2023/04/11 03:57:07;;;;;;;0.60;0.60;;;11.90;99.90;;;;;;4972480;28;20207;-48
2023/04/11 03:59:36;;;;;;;0.77;0.50;;;11.90;99.90;;;;;;4972980;28;20207;-49
2023/04/11 04:02:03;;;;;;;3.60;0.70;;;11.80;99.90;;;;;;4969777;28;20207;-49
2023/04/11 04:04:32;;;;;;;0.60;0.57;;;11.90;99.90;;;;;;4972604;28;20235;-48
2023/04/11 04:07:00;;;;;;;0.70;0.70;;;12.10;99.90;;;;;;4972906;28;20238;-49
2023/04/11 04:09:27;;;;;;;0.60;0.50;;;12.00;99.90;;;;;;4973022;28;20206;-49
2023/04/11 04:11:54;;;;;;;0.53;0.53;;;12.10;99.90;;;;;;4972184;28;20215;-48
2023/04/11 04:14:21;;;;;;;1.33;0.70;;;12.30;99.90;;;;;;4973298;28;20339;-49
2023/04/11 04:16:50;;;;;;;1.63;1.20;;;12.50;99.90;;;;;;4971967;28;20209;-49
2023/04/11 04:19:17;;;;;;;4.53;1.37;;;12.60;99.90;;;;;;4964159;28;20259;-49
2023/04/11 04:21:44;;;;;;;0.50;0.50;;;12.60;99.90;;;;;;4970157;28;20215;-49
2023/04/11 04:24:11;;;;;;;0.70;0.60;;;12.50;99.90;;;;;;4971886;28;20207;-49
2023/04/11 04:26:38;;;;;;;1.47;0.50;;;12.30;99.90;;;;;;4972572;28;20736;-49
2023/04/11 04:29:08;;;;;;;0.60;0.60;;;12.30;99.90;;;;;;4970407;28;20670;-49
2023/04/11 04:31:36;;;;;;;0.77;0.40;;;12.20;99.90;;;;;;4970917;28;20281;-49
2023/04/11 04:34:07;;;;;;;0.47;0.40;;;12.10;99.90;;;;;;4972410;28;20226;-49
2023/04/11 04:36:46;;;;;;;0.60;0.60;;;12.00;99.90;;;;;;4971487;28;20684;-49
2023/04/11 04:39:16;;;;;;;2.20;0.60;;;12.00;99.90;;;;;;4971619;28;20201;-49
2023/04/11 04:41:45;;;;;;;0.43;0.43;;;12.00;99.90;;;;;;4962770;28;20322;-49
2023/04/11 04:44:12;;;;;;;1.23;0.50;;;11.90;99.90;;;;;;4956239;28;20274;-48
2023/04/11 04:46:39;;;;;;;0.50;0.50;;;11.90;99.90;;;;;;4962267;28;20203;-48
2023/04/11 04:49:08;;;;;;;1.57;1.33;;;11.80;99.90;;;;;;4952228;28;20210;-49
2023/04/11 04:51:36;;;;;;;0.97;0.70;;;11.70;99.90;;;;;;4955851;28;20214;-48
2023/04/11 04:54:03;;;;;;;1.83;0.77;;;11.70;99.90;;;;;;4961039;28;20216;-48
2023/04/11 04:56:31;;;;;;;0.80;0.80;;;11.70;99.90;;;;;;4952648;28;20294;-48
2023/04/11 04:58:58;;;;;;;0.90;0.90;;;11.70;99.90;;;;;;4953401;28;20203;-48
2023/04/11 05:01:26;;;;;;;1.23;1.20;;;11.70;99.90;;;;;;4963811;28;20265;-47
2023/04/11 05:03:58;;;;;;;1.50;1.40;;;11.70;99.90;;;;;;4961761;28;20294;-48
2023/04/11 05:06:31;;;;;;;2.50;1.20;;;11.70;99.90;;;;;;4967150;28;20284;-48
2023/04/11 05:08:59;;;;;;;1.10;1.00;;;11.70;99.90;;;;;;4953372;28;20284;-48
2023/04/11 05:11:26;;;;;;;2.33;1.50;;;11.60;99.90;;;;;;4962707;28;20606;-48
2023/04/11 05:13:53;;;;;;;1.37;1.27;;;11.70;99.90;;;;;;4952347;28;20223;-48
2023/04/11 05:16:20;;;;;;;2.17;0.97;;;11.70;99.90;;;;;;4961616;28;20223;-48
2023/04/11 05:18:47;;;;;;;0.97;0.97;;;11.70;99.90;;;;;;4969390;28;20288;-48
2023/04/11 05:21:15;;;;;;;1.93;0.97;;;11.70;99.90;;;;;;4963964;28;20198;-48
2023/04/11 05:23:43;;;;;;;1.47;0.87;;;11.70;99.90;;;;;;4965056;28;20216;-48
2023/04/11 05:26:11;;;;;;;0.90;0.90;;;11.70;99.90;;;;;;4959816;28;20223;-48
2023/04/11 05:28:38;;;;;;;3.10;1.43;;;11.70;99.90;;;;;;4952877;28;20734;-48
2023/04/11 05:31:07;;;;;;;1.03;0.93;;;11.70;99.90;;;;;;4952017;28;20197;-48
2023/04/11 05:33:35;;;;;;;1.40;1.30;;;11.70;99.90;;;;;;4963004;28;20224;-48
2023/04/11 05:36:02;;;;;;;2.60;1.27;;;11.70;99.90;;;;;;4961172;28;20228;-48
2023/04/11 05:38:30;;;;;;;2.07;1.43;;;11.60;99.90;;;;;;4972525;28;20670;-48
2023/04/11 05:40:59;;;;;;;2.37;1.33;;;11.50;99.90;;;;;;4961620;28;20257;-48
2023/04/11 05:43:26;;;;;;;1.50;1.40;;;11.40;99.90;;;;;;4955639;28;20258;-48
2023/04/11 05:45:53;;;;;;;2.50;1.80;;;11.40;99.90;;;;;;4955614;28;20274;-48
2023/04/11 05:48:20;;;;;;;3.87;1.63;;;11.30;99.90;;;;;;4961277;28;20587;-48
2023/04/11 05:50:47;;;;;;;1.80;1.70;;;11.40;99.90;;;;;;4969765;28;20210;-48
2023/04/11 05:53:14;;;;;;;3.17;1.83;;;11.40;99.90;;;;;;4967617;28;20715;-48
2023/04/11 05:55:41;;;;;;;4.33;1.80;;;11.40;99.90;;;;;;4973047;28;20700;-48
2023/04/11 05:58:10;;;;;;;2.63;1.70;;;11.30;99.90;;;;;;4970490;28;20276;-48
2023/04/11 06:00:37;;;;;;;2.00;1.60;;;11.30;99.90;;;;;;4972081;28;20203;-48
2023/04/11 06:03:05;;;;;;;2.10;2.00;;;11.30;99.90;;;;;;4974200;28;20205;-48
2023/04/11 06:05:32;;;;;;;2.07;1.87;;;11.20;99.90;;;;;;4973032;28;20285;-48
2023/04/11 06:07:59;;;;;;;3.37;2.83;;;11.20;99.90;;;;;;4968172;28;20218;-47
2023/04/11 06:10:27;;;;;;;3.97;2.83;;;11.20;99.90;;;;;;4971796;28;20620;-48
2023/04/11 06:12:54;;;;;;;2.03;1.93;;;11.30;99.90;;;;;;4974991;28;20293;-48
2023/04/11 06:15:23;;;;;;;3.00;2.33;;;11.30;99.90;;;;;;4974310;28;20224;-48
2023/04/11 06:17:50;;;;;;;4.63;2.10;;;11.20;99.90;;;;;;4975695;28;20253;-48
2023/04/11 06:20:18;;;;;;;2.23;1.97;;;11.10;99.90;;;;;;4974746;28;20195;-48
2023/04/11 06:22:45;;;;;;;5.63;2.53;;;11.10;99.90;;;;;;4975190;28;20200;-48
2023/04/11 06:25:13;;;;;;;5.67;3.13;;;11.10;99.90;;;;;;4973525;28;20281;-48
2023/04/11 06:27:41;;;;;;;2.03;1.77;;;10.90;99.90;;;;;;4974571;28;20201;-48
2023/04/11 06:30:09;;;;;;;1.23;0.90;;;10.90;99.90;;;;;;4975299;28;20238;-48
2023/04/11 06:32:38;;;;;;;1.93;0.90;;;10.90;99.90;;;;;;4972543;28;20588;-48
2023/04/11 06:35:05;;;;;;;0.90;0.90;;;10.80;99.90;;;;;;4972733;28;20234;-48
2023/04/11 06:37:32;;;;;;;0.97;0.97;;;10.80;99.90;;;;;;4974369;28;20273;-48
2023/04/11 06:40:00;;;;;;;1.97;1.17;;;10.80;99.90;;;;;;4974663;28;20208;-48
2023/04/11 06:42:27;;;;;;;2.87;1.00;;;10.80;99.90;;;;;;4972001;28;20205;-48
2023/04/11 06:44:55;;;;;;;3.53;1.40;;;10.70;99.90;;;;;;4973334;28;20223;-48
2023/04/11 06:47:21;;;;;;;0.87;0.80;;;10.70;99.90;;;;;;4969923;28;20219;-48
2023/04/11 06:49:50;;;;;;;0.80;0.80;;;10.70;99.90;;;;;;4970560;28;20277;-48
2023/04/11 06:52:17;;;;;;;1.37;0.60;;;10.70;99.90;;;;;;4973507;28;20263;-48
2023/04/11 06:54:44;;;;;;;0.93;0.93;;;10.70;99.90;;;;;;4972839;28;20236;-48
2023/04/11 06:57:12;;;;;;;0.60;0.60;;;10.60;99.90;;;;;;4974113;28;20193;-49
2023/04/11 06:59:39;;;;;;;0.43;0.43;;;10.50;99.90;;;;;;4953826;29;20211;-49
2023/04/11 07:02:06;;;;;;;0.50;0.50;;;10.50;99.90;;;;;;4954434;28;20219;-48
2023/04/11 07:04:33;;;;;;;2.67;1.20;;;10.50;99.90;;;;;;4968206;28;20654;-50
2023/04/11 07:07:02;;;;;;;2.13;0.40;;;10.40;99.90;;;;;;4973583;28;20205;-49
2023/04/11 07:09:29;;;;;;;1.27;0.80;;;10.40;99.90;;;;;;4971518;28;20970;-48
2023/04/11 07:11:56;;;;;;;1.23;0.60;;;10.40;99.90;;;;;;4970724;28;20268;-48
2023/04/11 07:14:23;;;;;;;2.83;0.60;;;10.30;99.90;;;;;;4972381;28;20237;-48
2023/04/11 07:16:50;;;;;;;0.33;0.33;;;10.30;99.90;;;;;;4974219;28;20212;-48
2023/04/11 07:19:17;;;;;;;0.83;0.40;;;10.20;99.90;;;;;;4974347;28;20204;-48
2023/04/11 07:21:44;;;;;;;0.97;0.40;;;10.20;99.90;;;;;;4974678;28;20208;-48
2023/04/11 07:24:12;;;;;;;0.40;0.30;;;10.20;99.90;;;;;;4972291;28;20568;-48
2023/04/11 07:26:41;;;;;;;0.87;0.50;;;10.20;99.90;;;;;;4973725;28;20206;-48
2023/04/11 07:29:09;;;;;;;1.90;0.40;;;10.20;99.90;;;;;;4974123;28;20670;-48
2023/04/11 07:31:36;;;;;;;1.33;0.70;;;10.20;99.90;;;;;;4974243;28;20236;-48
2023/04/11 07:34:02;;;;;;;1.13;0.97;;;10.10;99.90;;;;;;4973878;28;20701;-48
2023/04/11 07:36:30;;;;;;;3.40;0.80;;;10.10;99.90;;;;;;4974087;28;20691;-48
2023/04/11 07:38:59;;;;;;;1.63;1.17;;;10.10;99.90;;;;;;4970121;28;20273;-47
2023/04/11 07:41:28;;;;;;;4.67;2.43;;;10.10;99.90;;;;;;4967353;28;20217;-47
2023/04/11 07:43:55;;;;;;;3.10;0.93;;;10.10;99.90;;;;;;4973893;28;20275;-48
2023/04/11 07:46:22;;;;;;;1.50;1.40;;;10.00;99.90;;;;;;4974098;28;20210;-47
2023/04/11 07:48:49;;;;;;;2.80;1.30;;;10.00;99.90;;;;;;4971833;28;20261;-48
2023/04/11 07:51:17;;;;;;;1.53;1.43;;;10.00;99.90;;;;;;4974275;28;20632;-47
2023/04/11 07:53:44;;;;;;;2.23;2.13;;;10.10;99.90;;;;;;4970594;28;20272;-48
2023/04/11 07:56:12;;;;;;;3.47;1.07;;;10.10;99.90;;;;;;4973207;28;20223;-48
2023/04/11 07:58:40;;;;;;;0.83;0.67;;;10.10;99.90;;;;;;4970662;28;20205;-47
2023/04/11 08:01:18;;;;;;;3.03;1.10;;;10.10;99.90;;;;;;4973280;28;20251;-48
2023/04/11 08:03:45;;;;;;;1.17;1.17;;;10.10;99.90;;;;;;4971867;28;20266;-48
2023/04/11 08:06:12;;;;;;;5.60;1.70;;;10.10;99.90;;;;;;4973181;28;20279;-49
2023/04/11 08:08:39;;;;;;;3.10;1.53;;;10.10;99.90;;;;;;4973336;28;20200;-48
2023/04/11 08:11:07;;;;;;;2.30;1.47;;;10.10;99.90;;;;;;4973406;28;20750;-48
2023/04/11 08:13:34;;;;;;;3.33;1.90;;;10.00;99.90;;;;;;4971145;28;20287;-49
2023/04/11 08:16:05;;;;;;;7.40;1.50;;;10.00;99.90;;;;;;4971409;28;20248;-48
2023/04/11 08:18:32;;;;;;;0.70;0.70;;;10.10;99.90;;;;;;4973055;28;20304;-49
2023/04/11 08:20:59;;;;;;;0.23;0.20;;;10.20;99.90;;;;;;4972368;28;20253;-47
2023/04/11 08:23:27;;;;;;;0.97;0.40;;;10.00;99.90;;;;;;4972060;28;20206;-48
2023/04/11 08:25:54;;;;;;;0.80;0.50;;;9.80;99.90;;;;;;4973181;28;20223;-48
2023/04/11 08:28:22;;;;;;;0.00;0.00;;;9.50;99.90;;;;;;4972737;28;20211;-48
2023/04/11 08:30:51;;;;;;;2.27;0.10;;;9.30;99.90;;;;;;4971420;28;21754;-48
2023/04/11 08:33:20;;;;;;;0.33;0.10;;;9.30;99.90;;;;;;4969239;28;20203;-48
2023/04/11 08:35:47;;;;;;;0.10;0.10;;;9.10;99.90;;;;;;4953745;29;20254;-48
2023/04/11 08:38:14;;;;;;;0.10;0.10;;;9.00;99.90;;;;;;4953378;28;20210;-48
2023/04/11 08:40:41;;;;;;;0.47;0.10;;;8.90;99.90;;;;;;4964726;28;20668;-48
2023/04/11 08:43:11;;;;;;;1.90;0.30;;;8.80;99.90;;;;;;4972663;28;20202;-48
2023/04/11 08:45:38;;;;;;;0.10;0.10;;;8.80;99.90;;;;;;4970961;28;20295;-47
2023/04/11 08:48:06;;;;;;;0.10;0.10;;;8.90;99.90;;;;;;4972097;28;20576;-48
2023/04/11 08:50:35;;;;;;;0.67;0.20;;;8.90;99.90;;;;;;4972627;28;20205;-48
2023/04/11 08:53:03;;;;;;;0.53;0.00;;;8.90;99.90;;;;;;4972583;28;20260;-48
2023/04/11 08:55:31;;;;;;;0.10;0.10;;;8.80;99.90;;;;;;4972832;28;20238;-48
2023/04/11 08:58:01;;;;;;;0.00;0.00;;;8.80;99.90;;;;;;4972392;28;20214;-47
2023/04/11 09:00:31;;;;;;;0.23;0.23;;;8.90;99.90;;;;;;4970844;28;20725;-48
2023/04/11 09:02:59;;;;;;;0.70;0.70;;;8.80;99.90;;;;;;4972554;28;20202;-48
2023/04/11 09:05:28;;;;;;;0.80;0.40;;;8.80;99.90;;;;;;4969450;28;20224;-48
2023/04/11 09:07:57;;;;;;;0.50;0.50;;;8.80;99.90;;;;;;4972197;28;20214;-48
2023/04/11 09:10:26;;;;;;;0.37;0.10;;;8.70;99.90;;;;;;4971973;28;20256;-48
2023/04/11 09:12:54;;;;;;;35.00;21.13;;;8.80;99.90;;;;;;4972359;28;20208;-48
2023/04/11 09:15:22;;;;;;;0.60;0.60;;;8.80;99.90;;;;;;4972095;28;20262;-48
2023/04/11 09:17:49;;;;;;;1.07;0.13;;;8.80;99.90;;;;;;4971098;28;20211;-48
2023/04/11 09:20:18;;;;;;;238.57;119.57;;;8.80;99.90;;;;;;4972202;28;20275;-48
2023/04/11 09:22:45;;;;;;;66.53;39.37;;;8.70;99.90;;;;;;4972450;28;20210;-48
2023/04/11 09:25:14;;;;;;;296.03;174.43;;;8.70;99.90;;;;;;4961061;28;20302;-48
2023/04/11 09:27:41;;;;;;;168.43;89.10;;;8.80;99.90;;;;;;4963333;28;20285;-49
2023/04/11 09:30:22;;;;;;;56.83;33.07;;;8.90;99.90;;;;;;4971090;28;20597;-49
2023/04/11 09:32:51;;;;;;;185.47;86.03;;;9.00;99.90;;;;;;4958093;28;20296;-49
2023/04/11 09:35:22;;;;;;;132.93;61.27;;;9.00;99.90;;;;;;4971560;28;20750;-48
2023/04/11 09:37:50;;;;;;;269.73;155.53;;;9.10;99.90;;;;;;4971925;28;20210;-48
2023/04/11 09:40:21;;;;;;;289.97;149.67;;;9.10;99.90;;;;;;4971918;28;20263;-49
2023/04/11 09:42:55;;;;;;;444.70;244.10;;;9.10;99.90;;;;;;4966638;28;20713;-49
2023/04/11 09:45:23;;;;;;;55.67;34.07;;;9.10;99.90;;;;;;4971610;28;20219;-49
2023/04/11 09:47:52;;;;;;;15.10;11.97;;;9.20;99.90;;;;;;4989526;23;20653;-49
2023/04/11 09:50:20;;;;;;;1.73;1.17;;;9.10;99.90;;;;;;4968955;28;20217;-50
2023/04/11 09:52:47;;;;;;;2.30;1.10;;;9.20;99.90;;;;;;4971372;28;20696;-50
2023/04/11 09:55:16;;;;;;;1.97;1.70;;;9.10;99.90;;;;;;4969622;28;20217;-50
2023/04/11 09:57:46;;;;;;;1.43;0.27;;;9.10;99.90;;;;;;4970446;28;20761;-50
2023/04/11 10:00:15;;;;;;;1.50;0.80;;;9.00;99.90;;;;;;4963328;28;20211;-49
2023/04/11 10:02:43;;;;;;;0.60;0.33;;;9.00;99.90;;;;;;4965993;28;20266;-49
2023/04/11 10:05:11;;;;;;;1.27;1.23;;;9.00;99.90;;;;;;4966350;28;20384;-49
2023/04/11 10:07:47;;;;;;;0.73;0.40;;;9.10;99.90;;;;;;4968047;28;20237;-49
2023/04/11 10:10:19;;;;;;;1.97;1.90;;;9.20;99.90;;;;;;4963713;28;20196;-50
2023/04/11 10:12:49;;;;;;;1.17;1.00;;;9.00;99.90;;;;;;4962745;28;20765;-49
2023/04/11 10:15:16;;;;;;;1.10;0.50;;;9.00;99.90;;;;;;4971407;28;20226;-49
2023/04/11 10:18:07;;;;;;;1.53;1.43;;;9.20;99.90;;;;;;4962965;28;20297;-50
2023/04/11 10:20:45;;;;;;;0.67;0.67;;;9.20;99.90;;;;;;4967781;28;20209;-50
2023/04/11 10:23:13;;;;;;;1.60;0.20;;;9.30;99.90;;;;;;4970123;28;20277;-50
2023/04/11 10:25:54;;;;;;;3.53;3.17;;;9.50;99.90;;;;;;4966279;28;20247;-49
2023/04/11 10:28:34;;;;;;;0.53;0.30;;;9.40;99.90;;;;;;4972825;28;20313;-50
2023/04/11 10:31:11;;;;;;;0.20;0.20;;;9.30;99.90;;;;;;4969994;28;20210;-50
2023/04/11 10:33:40;;;;;;;0.40;0.40;;;9.40;99.90;;;;;;4970342;28;20238;-50
2023/04/11 10:36:09;;;;;;;1.43;1.43;;;9.50;99.90;;;;;;4972867;28;20222;-48
2023/04/11 10:38:49;;;;;;;0.20;0.20;;;9.50;99.90;;;;;;4971231;28;20321;-47
2023/04/11 10:41:26;;;;;;;2.57;0.67;;;9.60;99.90;;;;;;4975959;28;20261;-50
2023/04/11 10:44:14;;;;;;;0.50;0.20;;;9.80;99.90;;;;;;4971287;28;20208;-49
2023/04/11 10:46:46;;;;;;;0.87;0.37;;;9.80;99.90;;;;;;4971142;28;20761;-50
2023/04/11 10:49:30;;;;;;;0.90;0.57;;;9.80;99.90;;;;;;4969657;28;20286;-50
2023/04/11 10:52:16;;;;;;;0.30;0.20;;;9.70;99.90;;;;;;4967368;28;20245;-50
2023/04/11 10:54:44;;;;;;;0.50;0.30;;;9.70;99.90;;;;;;4968413;28;20358;-48
2023/04/11 10:57:11;;;;;;;0.30;0.30;;;9.70;99.90;;;;;;4970281;28;20198;-47
2023/04/11 10:59:59;;;;;;;2.43;0.63;;;9.80;99.90;;;;;;4971477;28;20229;-50
2023/04/11 11:02:41;;;;;;;1.20;0.50;;;9.80;99.90;;;;;;4974164;28;20206;-50
2023/04/11 11:05:23;;;;;;;1.67;0.40;;;9.80;99.90;;;;;;4974385;28;20196;-50
2023/04/11 11:07:52;;;;;;;0.37;0.30;;;9.80;99.90;;;;;;4974071;28;20234;-50
2023/04/11 11:10:38;;;;;;;0.20;0.20;;;9.70;99.90;;;;;;4974151;28;20269;-50
2023/04/11 11:13:05;;;;;;;0.80;0.40;;;9.70;99.90;;;;;;4972379;28;20192;-50
2023/04/11 11:15:36;;;;;;;2.00;0.33;;;9.70;99.90;;;;;;4970941;28;20651;-50
2023/04/11 11:18:08;;;;;;;1.43;0.30;;;9.60;99.90;;;;;;4973627;28;20223;-50
2023/04/11 11:20:36;;;;;;;5.20;0.67;;;9.60;99.90;;;;;;4974206;28;20225;-50
2023/04/11 11:23:06;;;;;;;0.67;0.63;;;9.70;99.90;;;;;;4974072;28;20648;-50
2023/04/11 11:25:33;;;;;;;1.77;0.30;;;9.70;99.90;;;;;;4973941;28;20206;-49
2023/04/11 11:28:05;;;;;;;0.23;0.20;;;9.70;99.90;;;;;;4973872;28;20339;-49
2023/04/11 11:30:32;;;;;;;0.87;0.57;;;9.60;99.90;;;;;;4973142;28;20206;-49
2023/04/11 11:33:16;;;;;;;0.30;0.30;;;9.70;99.90;;;;;;4973754;28;20636;-49
2023/04/11 11:35:45;;;;;;;0.97;0.93;;;9.70;99.90;;;;;;4973721;28;20218;-49
2023/04/11 11:38:13;;;;;;;3.13;0.30;;;9.70;99.90;;;;;;4973555;28;20663;-49
2023/04/11 11:40:40;;;;;;;2.77;0.40;;;9.60;99.90;;;;;;4972631;28;20213;-49
2023/04/11 11:43:08;;;;;;;0.40;0.40;;;9.50;99.90;;;;;;4973023;28;20221;-49
2023/04/11 11:45:35;;;;;;;2.90;0.50;;;9.50;99.90;;;;;;4971117;28;20202;-49
2023/04/11 11:48:03;;;;;;;0.60;0.23;;;9.40;99.90;;;;;;4971146;28;20338;-49
2023/04/11 11:50:32;;;;;;;2.30;0.30;;;9.40;99.90;;;;;;4964490;28;20214;-49
2023/04/11 11:53:12;;;;;;;1.77;0.40;;;9.50;99.90;;;;;;4972598;28;20201;-49
2023/04/11 11:55:40;;;;;;;1.03;0.40;;;9.50;99.90;;;;;;4971720;28;20664;-50
2023/04/11 11:58:07;;;;;;;1.90;0.60;;;9.50;99.90;;;;;;4965160;28;20874;-49
2023/04/11 12:00:37;;;;;;;2.77;0.43;;;9.40;99.90;;;;;;4971025;28;20631;-49
2023/04/11 12:03:08;;;;;;;0.97;0.20;;;9.50;99.90;;;;;;4968024;28;20645;-49
2023/04/11 12:05:36;;;;;;;0.20;0.20;;;9.60;99.90;;;;;;4971352;28;20233;-49
2023/04/11 12:08:06;;;;;;;0.67;0.20;;;9.70;99.90;;;;;;4965451;28;20795;-49
2023/04/11 12:10:38;;;;;;;2.13;0.30;;;9.70;99.90;;;;;;4970535;28;20210;-49
2023/04/11 12:13:15;;;;;;;3.63;0.27;;;9.70;99.90;;;;;;4971595;28;20261;-49
2023/04/11 12:15:46;;;;;;;1.60;0.50;;;9.80;99.90;;;;;;4970913;28;20239;-49
2023/04/11 12:18:14;;;;;;;0.77;0.40;;;9.80;99.90;;;;;;4972715;28;20309;-49
2023/04/11 12:20:41;;;;;;;0.67;0.30;;;9.80;99.90;;;;;;4970282;28;20219;-49
2023/04/11 12:23:08;;;;;;;0.87;0.67;;;9.70;99.90;;;;;;4971857;28;20207;-49
2023/04/11 12:25:35;;;;;;;1.60;0.20;;;9.70;99.90;;;;;;4963999;28;20247;-49
2023/04/11 12:28:02;;;;;;;3.07;0.20;;;9.70;99.90;;;;;;4972237;28;20218;-49
2023/04/11 12:30:29;;;;;;;2.60;0.23;;;9.70;99.90;;;;;;4972922;28;20218;-49
2023/04/11 12:32:56;;;;;;;3.87;0.40;;;9.80;99.90;;;;;;4972878;28;20222;-49
2023/04/11 12:35:25;;;;;;;0.40;0.30;;;9.80;99.90;;;;;;4971315;28;20222;-49
2023/04/11 12:37:51;;;;;;;1.93;1.37;;;9.80;99.90;;;;;;4967391;28;20645;-49
2023/04/11 12:40:19;;;;;;;0.43;0.20;;;9.90;99.90;;;;;;4970975;28;22043;-49
2023/04/11 12:42:47;;;;;;;5.40;3.10;;;9.90;99.90;;;;;;4960471;28;20675;-49
2023/04/11 12:45:15;;;;;;;3.77;2.23;;;9.80;99.90;;;;;;4965348;28;20192;-49
2023/04/11 12:47:43;;;;;;;2.90;2.30;;;9.90;99.90;;;;;;4971376;28;20292;-49
2023/04/11 12:50:11;;;;;;;2.57;0.80;;;10.00;99.90;;;;;;4972526;28;20318;-49
2023/04/11 12:52:41;;;;;;;0.70;0.70;;;10.10;99.90;;;;;;4972602;28;20207;-49
2023/04/11 12:55:09;;;;;;;1.77;0.40;;;10.10;99.90;;;;;;4964868;28;20285;-49